Main page
METAR-TAF:

METAR-TAF

Airports :

Sialkot International Airport

Sialkot, Pakistan

latitude: 32-32N, longitude: 74-22E, elevation: 255 m

Current weather observation

The report was made 18 minutes ago, at 22:00 UTC
Wind 10 kt from the Northeast
Temperature 9°C
Humidity 93%
Pressure 1018 hPa
Visibility: 3000 m
Scattered clouds at a height of 4000 ft
Broken clouds at a height of 10000 ft
smoke

METAR: OPST 222200Z 05010KT 3000 FU SCT040 BKN100 09/08 Q1018 RETSRA TEMPO 13025KT 2000 -TSRA FEW030CB RH93

Time: 03:18 (22:18 UTC)


TAF: missing

Weather observations and forecasts of more than 4000 airports (METAR and TAF reports).

The available stations are represented by yellow and red dots on the map.

Hover mouse over dot to see the name of the station.

Then click to see weather observations and forecasts.

To change the map : click on the green buttons with a black cross to zoom in, on the green button with a dash to zoom out, or on the green arrows for adjacent maps.


METAR-TAF: